Currently 65°F in French Valley, California, USA
65°F
67°F / 58°F
3 mph W
0.00"
Saturday, April 29, 2017 2:18 AM PDT

French Valley, California Weather Summary
Last 36 Hours

Temperature Winds Hourly Humidity Dewpoint
Time Report Norm Report Norm Max Gusts Precip. Rpt. Norm Rpt. Norm Pressure
1Sat 02:18 AM  64.7°F  55°F  3 mph W  1 mph  8 mph  0.00"  26%  82%  27°F  49°F  30.00"
Sat 02:00 AM  66.2°F  55°F  5 mph NW  1 mph  15 mph  0.00"  23%  80%  26°F  49°F  29.99"
2Sat 01:33 AM  67.0°F  56°F  6 mph SE  2 mph  15 mph  ----  22%  81%  25°F  49°F  29.98"
Sat 01:00 AM  59.2°F  56°F  1 mph N  1 mph  9 mph  0.00"  46%  80%  37°F  50°F  29.98"
3Sat 12:51 AM  58.5°F  56°F  4 mph NW  1 mph  9 mph  ----  52%  80%  40°F  50°F  29.98"
Sat 12:00 AM  59.2°F  57°F  3 mph NW  2 mph  7 mph  0.00"  59%  79%  44°F  50°F  29.96"
Fri 11:00 PM  59.8°F  58°F  calm  2 mph  7 mph  0.00"  68%  78%  49°F  51°F  29.93"
Fri 10:00 PM  62.1°F  59°F  3 mph SE  3 mph  6 mph  0.00"  58%  76%  47°F  51°F  29.91"
Fri 09:00 PM  64.8°F  61°F  calm  4 mph  10 mph  0.00"  57%  71%  49°F  51°F  29.89"
Fri 08:00 PM  67.2°F  63°F  4 mph SE  5 mph  12 mph  0.00"  51%  66%  47°F  51°F  29.86"
Fri 07:00 PM  70.1°F  67°F  6 mph S  7 mph  18 mph  0.00"  43%  59%  46°F  51°F  29.83"
Fri 06:00 PM  74.3°F  70°F  10 mph S  7 mph  21 mph  0.00"  40%  53%  48°F  51°F  29.79"
Fri 05:00 PM  75.9°F  72°F  12 mph S  8 mph  22 mph  0.00"  41%  50%  50°F  52°F  29.78"
Fri 04:00 PM  80.4°F  74°F  6 mph NW  8 mph  18 mph  0.00"  20%  47%  34°F  51°F  29.79"
Fri 03:00 PM  79.3°F  75°F  12 mph W  7 mph  22 mph  0.00"  20%  45%  33°F  51°F  29.81"
Fri 02:00 PM  78.7°F  75°F  10 mph W  7 mph  25 mph  0.00"  20%  43%  32°F  50°F  29.84"
Fri 01:00 PM  77.3°F  73°F  12 mph W  5 mph  22 mph  0.00"  22%  44%  34°F  49°F  29.85"
Fri 12:00 PM  76.9°F  72°F  6 mph W  5 mph  15 mph  0.00"  22%  46%  34°F  49°F  29.88"
Fri 11:00 AM  71.7°F  69°F  5 mph SW  4 mph  10 mph  0.00"  44%  51%  48°F  50°F  29.90"
Fri 10:00 AM  67.4°F  65°F  1 mph SE  4 mph  7 mph  0.00"  51%  60%  48°F  51°F  29.91"
Fri 09:00 AM  61.8°F  61°F  4 mph S  3 mph  7 mph  0.00"  79%  69%  55°F  51°F  29.91"
Fri 08:00 AM  56.9°F  57°F  calm  2 mph  5 mph  0.00"  96%  78%  56°F  50°F  29.91"
Fri 07:00 AM  53.4°F  54°F  calm  2 mph  4 mph  0.00"  98%  84%  53°F  49°F  29.89"
Fri 06:00 AM  52.5°F  53°F  calm  1 mph  3 mph  0.00"  97%  85%  52°F  48°F  29.86"
Fri 05:00 AM  54.0°F  53°F  calm  1 mph  none  0.00"  97%  85%  53°F  49°F  29.85"
Fri 04:00 AM  54.8°F  54°F  calm  2 mph  5 mph  0.00"  97%  84%  54°F  49°F  29.85"
Fri 03:00 AM  55.2°F  54°F  calm  2 mph  5 mph  0.00"  97%  83%  54°F  49°F  29.84"
Fri 02:00 AM  55.9°F  55°F  3 mph SE  2 mph  5 mph  0.00"  97%  82%  55°F  49°F  29.83"
Fri 01:00 AM  56.7°F  56°F  1 mph SE  1 mph  6 mph  0.00"  96%  82%  55°F  50°F  29.85"
Fri 12:00 AM  57.1°F  56°F  calm  2 mph  7 mph  0.00"  93%  81%  55°F  50°F  29.85"
Thu 11:00 PM  58.1°F  57°F  3 mph SE  2 mph  6 mph  0.00"  92%  80%  56°F  51°F  29.85"
Thu 10:00 PM  59.6°F  58°F  3 mph SE  3 mph  8 mph  0.00"  88%  78%  56°F  51°F  29.85"
Thu 09:00 PM  62.0°F  60°F  2 mph SE  4 mph  7 mph  0.00"  82%  73%  56°F  51°F  29.84"
Thu 08:00 PM  63.6°F  62°F  5 mph SE  5 mph  10 mph  0.00"  79%  69%  57°F  51°F  29.82"
Thu 07:00 PM  66.3°F  66°F  7 mph S  7 mph  13 mph  0.00"  73%  62%  57°F  52°F  29.82"
Thu 06:00 PM  69.4°F  69°F  7 mph S  8 mph  14 mph  0.00"  70%  56%  59°F  52°F  29.82"
Thu 05:00 PM  69.1°F  71°F  9 mph S  8 mph  17 mph  0.00"  70%  52%  58°F  52°F  29.82"
Thu 04:00 PM  71.9°F  73°F  10 mph S  8 mph  16 mph  0.00"  65%  49%  59°F  52°F  29.81"
Thu 03:00 PM  74.4°F  74°F  8 mph S  7 mph  13 mph  0.00"  57%  46%  58°F  51°F  29.83"

  1. Current weather data. No green row appears if the current weather data is also the high or low for the current day.
  2. High temperature for the current day.
  3. Low temperature for the current day.

The French Valley, California weather pages are a service of WeatherCurrents. French Valley is located in southwestern Riverside County, California, north of Temecula, east of Murrieta, and south of Winchester. French Valley is bordered by Lake Skinner.
Copyright ©Sat Apr 29 02:19:22 PDT 2017  WeatherCurrents. All rights reserved. - Submit questions and comments - Privacy Policy

This page automatically refreshes every 10 minutes.